sensor_id;sensor_type;location;lat;lon;timestamp;temperature;humidity
70089;HTU21D;57460;47.134;19.888;2024-02-26T00:01:43;12.44;73.77
70089;HTU21D;57460;47.134;19.888;2024-02-26T00:04:12;12.40;73.90
70089;HTU21D;57460;47.134;19.888;2024-02-26T00:06:39;12.43;73.56
70089;HTU21D;57460;47.134;19.888;2024-02-26T00:09:08;12.42;73.57
70089;HTU21D;57460;47.134;19.888;2024-02-26T00:11:35;12.42;73.32
70089;HTU21D;57460;47.134;19.888;2024-02-26T00:14:01;12.42;73.67
70089;HTU21D;57460;47.134;19.888;2024-02-26T00:16:27;12.40;73.57
70089;HTU21D;57460;47.134;19.888;2024-02-26T00:18:52;12.41;74.38
70089;HTU21D;57460;47.134;19.888;2024-02-26T00:21:18;12.29;74.87
70089;HTU21D;57460;47.134;19.888;2024-02-26T00:23:44;12.27;74.22
70089;HTU21D;57460;47.134;19.888;2024-02-26T00:26:09;12.26;74.12
70089;HTU21D;57460;47.134;19.888;2024-02-26T00:28:36;12.23;74.99
70089;HTU21D;57460;47.134;19.888;2024-02-26T00:31:02;12.13;77.03
70089;HTU21D;57460;47.134;19.888;2024-02-26T00:33:28;11.99;77.87
70089;HTU21D;57460;47.134;19.888;2024-02-26T00:35:54;11.89;78.09
70089;HTU21D;57460;47.134;19.888;2024-02-26T00:38:20;11.82;77.72
70089;HTU21D;57460;47.134;19.888;2024-02-26T00:40:46;11.73;78.37
70089;HTU21D;57460;47.134;19.888;2024-02-26T00:43:11;11.67;79.21
70089;HTU21D;57460;47.134;19.888;2024-02-26T00:45:37;11.61;79.93
70089;HTU21D;57460;47.134;19.888;2024-02-26T00:48:03;11.57;80.56
70089;HTU21D;57460;47.134;19.888;2024-02-26T00:50:33;11.56;80.35
70089;HTU21D;57460;47.134;19.888;2024-02-26T00:52:59;11.54;81.05
70089;HTU21D;57460;47.134;19.888;2024-02-26T00:55:25;11.53;80.81
70089;HTU21D;57460;47.134;19.888;2024-02-26T00:57:51;11.51;80.65
70089;HTU21D;57460;47.134;19.888;2024-02-26T01:00:17;11.45;80.96
70089;HTU21D;57460;47.134;19.888;2024-02-26T01:02:43;11.43;81.26
70089;HTU21D;57460;47.134;19.888;2024-02-26T01:05:09;11.41;81.49
70089;HTU21D;57460;47.134;19.888;2024-02-26T01:07:35;11.39;81.04
70089;HTU21D;57460;47.134;19.888;2024-02-26T01:10:02;11.33;81.70
70089;HTU21D;57460;47.134;19.888;2024-02-26T01:12:28;11.30;81.92
70089;HTU21D;57460;47.134;19.888;2024-02-26T01:14:54;11.28;82.14
70089;HTU21D;57460;47.134;19.888;2024-02-26T01:17:19;11.23;82.78
70089;HTU21D;57460;47.134;19.888;2024-02-26T01:19:45;11.18;82.98
70089;HTU21D;57460;47.134;19.888;2024-02-26T01:22:11;11.16;82.70
70089;HTU21D;57460;47.134;19.888;2024-02-26T01:24:36;11.15;82.94
70089;HTU21D;57460;47.134;19.888;2024-02-26T01:27:02;11.10;83.05
70089;HTU21D;57460;47.134;19.888;2024-02-26T01:29:28;11.05;83.41
70089;HTU21D;57460;47.134;19.888;2024-02-26T01:31:54;11.01;82.96
70089;HTU21D;57460;47.134;19.888;2024-02-26T01:34:20;10.98;83.12
70089;HTU21D;57460;47.134;19.888;2024-02-26T01:36:46;10.96;83.68
70089;HTU21D;57460;47.134;19.888;2024-02-26T01:39:12;10.96;83.57
70089;HTU21D;57460;47.134;19.888;2024-02-26T01:41:41;10.98;83.16
70089;HTU21D;57460;47.134;19.888;2024-02-26T01:44:07;10.99;82.87
70089;HTU21D;57460;47.134;19.888;2024-02-26T01:46:34;10.97;83.95
70089;HTU21D;57460;47.134;19.888;2024-02-26T01:49:02;10.97;83.84
70089;HTU21D;57460;47.134;19.888;2024-02-26T01:51:31;11.01;82.78
70089;HTU21D;57460;47.134;19.888;2024-02-26T01:53:59;11.01;83.44
70089;HTU21D;57460;47.134;19.888;2024-02-26T01:56:27;11.02;83.43
70089;HTU21D;57460;47.134;19.888;2024-02-26T01:58:56;11.03;83.52
70089;HTU21D;57460;47.134;19.888;2024-02-26T02:01:25;11.03;83.68
70089;HTU21D;57460;47.134;19.888;2024-02-26T02:03:54;11.02;83.50
70089;HTU21D;57460;47.134;19.888;2024-02-26T02:06:20;11.03;83.66
70089;HTU21D;57460;47.134;19.888;2024-02-26T02:08:46;11.04;83.52
70089;HTU21D;57460;47.134;19.888;2024-02-26T02:11:12;11.01;83.27
70089;HTU21D;57460;47.134;19.888;2024-02-26T02:13:40;11.00;83.63
70089;HTU21D;57460;47.134;19.888;2024-02-26T02:16:06;10.99;83.45
70089;HTU21D;57460;47.134;19.888;2024-02-26T02:18:32;11.01;82.84
70089;HTU21D;57460;47.134;19.888;2024-02-26T02:21:00;11.04;82.71
70089;HTU21D;57460;47.134;19.888;2024-02-26T02:23:26;11.05;82.68
70089;HTU21D;57460;47.134;19.888;2024-02-26T02:25:52;11.10;82.20
70089;HTU21D;57460;47.134;19.888;2024-02-26T02:28:19;11.12;81.80
70089;HTU21D;57460;47.134;19.888;2024-02-26T02:30:45;11.12;81.87
70089;HTU21D;57460;47.134;19.888;2024-02-26T02:33:11;11.05;82.55
70089;HTU21D;57460;47.134;19.888;2024-02-26T02:35:37;11.00;82.78
70089;HTU21D;57460;47.134;19.888;2024-02-26T02:38:03;10.97;82.94
70089;HTU21D;57460;47.134;19.888;2024-02-26T02:40:29;10.96;82.36
70089;HTU21D;57460;47.134;19.888;2024-02-26T02:42:55;10.95;82.82
70089;HTU21D;57460;47.134;19.888;2024-02-26T02:45:20;10.93;82.80
70089;HTU21D;57460;47.134;19.888;2024-02-26T02:47:46;10.95;82.63
70089;HTU21D;57460;47.134;19.888;2024-02-26T02:50:12;10.99;82.06
70089;HTU21D;57460;47.134;19.888;2024-02-26T02:52:37;11.00;82.11
70089;HTU21D;57460;47.134;19.888;2024-02-26T02:55:03;10.99;82.26
70089;HTU21D;57460;47.134;19.888;2024-02-26T02:57:30;10.98;82.07
70089;HTU21D;57460;47.134;19.888;2024-02-26T02:59:57;10.94;82.10
70089;HTU21D;57460;47.134;19.888;2024-02-26T03:02:22;10.85;82.86
70089;HTU21D;57460;47.134;19.888;2024-02-26T03:04:50;10.77;83.23
70089;HTU21D;57460;47.134;19.888;2024-02-26T03:07:16;10.73;83.32
70089;HTU21D;57460;47.134;19.888;2024-02-26T03:09:42;10.73;83.31
70089;HTU21D;57460;47.134;19.888;2024-02-26T03:12:08;10.74;83.39
70089;HTU21D;57460;47.134;19.888;2024-02-26T03:14:34;10.78;83.18
70089;HTU21D;57460;47.134;19.888;2024-02-26T03:16:59;10.81;82.35
70089;HTU21D;57460;47.134;19.888;2024-02-26T03:19:25;10.85;82.71
70089;HTU21D;57460;47.134;19.888;2024-02-26T03:21:51;10.88;82.30
70089;HTU21D;57460;47.134;19.888;2024-02-26T03:24:17;10.90;82.13
70089;HTU21D;57460;47.134;19.888;2024-02-26T03:26:42;10.87;81.75
70089;HTU21D;57460;47.134;19.888;2024-02-26T03:29:08;10.85;82.09
70089;HTU21D;57460;47.134;19.888;2024-02-26T03:31:34;10.79;82.46
70089;HTU21D;57460;47.134;19.888;2024-02-26T03:34:00;10.75;82.17
70089;HTU21D;57460;47.134;19.888;2024-02-26T03:36:25;10.70;82.71
70089;HTU21D;57460;47.134;19.888;2024-02-26T03:38:51;10.71;82.31
70089;HTU21D;57460;47.134;19.888;2024-02-26T03:41:17;10.72;81.98
70089;HTU21D;57460;47.134;19.888;2024-02-26T03:43:42;10.74;82.23
70089;HTU21D;57460;47.134;19.888;2024-02-26T03:46:09;10.74;82.42
70089;HTU21D;57460;47.134;19.888;2024-02-26T03:48:37;10.73;82.29
70089;HTU21D;57460;47.134;19.888;2024-02-26T03:51:03;10.73;82.19
70089;HTU21D;57460;47.134;19.888;2024-02-26T03:53:29;10.71;82.24
70089;HTU21D;57460;47.134;19.888;2024-02-26T03:55:54;10.69;82.49
70089;HTU21D;57460;47.134;19.888;2024-02-26T03:58:21;10.66;82.68
70089;HTU21D;57460;47.134;19.888;2024-02-26T04:00:47;10.60;82.99
70089;HTU21D;57460;47.134;19.888;2024-02-26T04:03:15;10.56;83.34
70089;HTU21D;57460;47.134;19.888;2024-02-26T04:05:41;10.52;83.43
70089;HTU21D;57460;47.134;19.888;2024-02-26T04:08:07;10.50;83.45
70089;HTU21D;57460;47.134;19.888;2024-02-26T04:10:35;10.49;83.49
70089;HTU21D;57460;47.134;19.888;2024-02-26T04:13:03;10.44;83.56
70089;HTU21D;57460;47.134;19.888;2024-02-26T04:15:29;10.42;83.49
70089;HTU21D;57460;47.134;19.888;2024-02-26T04:17:55;10.43;83.37
70089;HTU21D;57460;47.134;19.888;2024-02-26T04:20:21;10.40;83.39
70089;HTU21D;57460;47.134;19.888;2024-02-26T04:22:47;10.38;83.43
70089;HTU21D;57460;47.134;19.888;2024-02-26T04:25:12;10.39;83.44
70089;HTU21D;57460;47.134;19.888;2024-02-26T04:27:38;10.37;83.42
70089;HTU21D;57460;47.134;19.888;2024-02-26T04:30:05;10.36;83.42
70089;HTU21D;57460;47.134;19.888;2024-02-26T04:32:31;10.33;83.57
70089;HTU21D;57460;47.134;19.888;2024-02-26T04:34:57;10.28;83.78
70089;HTU21D;57460;47.134;19.888;2024-02-26T04:37:23;10.30;83.62
70089;HTU21D;57460;47.134;19.888;2024-02-26T04:39:48;10.30;83.48
70089;HTU21D;57460;47.134;19.888;2024-02-26T04:42:17;10.30;83.61
70089;HTU21D;57460;47.134;19.888;2024-02-26T04:44:43;10.33;83.58
70089;HTU21D;57460;47.134;19.888;2024-02-26T04:47:08;10.34;82.83
70089;HTU21D;57460;47.134;19.888;2024-02-26T04:49:34;10.31;83.05
70089;HTU21D;57460;47.134;19.888;2024-02-26T04:51:59;10.33;82.97
70089;HTU21D;57460;47.134;19.888;2024-02-26T04:54:25;10.30;83.01
70089;HTU21D;57460;47.134;19.888;2024-02-26T04:56:51;10.31;83.04
70089;HTU21D;57460;47.134;19.888;2024-02-26T04:59:16;10.29;83.13
70089;HTU21D;57460;47.134;19.888;2024-02-26T05:01:42;10.30;82.91
70089;HTU21D;57460;47.134;19.888;2024-02-26T05:04:08;10.33;82.84
70089;HTU21D;57460;47.134;19.888;2024-02-26T05:06:34;10.33;82.61
70089;HTU21D;57460;47.134;19.888;2024-02-26T05:09:01;10.30;82.81
70089;HTU21D;57460;47.134;19.888;2024-02-26T05:11:29;10.28;83.12
70089;HTU21D;57460;47.134;19.888;2024-02-26T05:13:54;10.25;83.15
70089;HTU21D;57460;47.134;19.888;2024-02-26T05:16:20;10.24;82.99
70089;HTU21D;57460;47.134;19.888;2024-02-26T05:18:50;10.25;82.84
70089;HTU21D;57460;47.134;19.888;2024-02-26T05:21:15;10.27;82.33
70089;HTU21D;57460;47.134;19.888;2024-02-26T05:23:41;10.27;82.45
70089;HTU21D;57460;47.134;19.888;2024-02-26T05:26:09;10.24;82.87
70089;HTU21D;57460;47.134;19.888;2024-02-26T05:28:35;10.23;82.77
70089;HTU21D;57460;47.134;19.888;2024-02-26T05:31:02;10.30;82.21
70089;HTU21D;57460;47.134;19.888;2024-02-26T05:33:28;10.28;82.67
70089;HTU21D;57460;47.134;19.888;2024-02-26T05:35:54;10.34;81.65
70089;HTU21D;57460;47.134;19.888;2024-02-26T05:38:20;10.30;82.52
70089;HTU21D;57460;47.134;19.888;2024-02-26T05:40:45;10.35;82.28
70089;HTU21D;57460;47.134;19.888;2024-02-26T05:43:11;10.35;82.20
70089;HTU21D;57460;47.134;19.888;2024-02-26T05:45:40;10.35;82.09
70089;HTU21D;57460;47.134;19.888;2024-02-26T05:48:06;10.38;81.13
70089;HTU21D;57460;47.134;19.888;2024-02-26T05:50:32;10.36;81.97
70089;HTU21D;57460;47.134;19.888;2024-02-26T05:52:58;10.39;81.58
70089;HTU21D;57460;47.134;19.888;2024-02-26T05:55:23;10.38;81.97
70089;HTU21D;57460;47.134;19.888;2024-02-26T05:57:49;10.41;81.77
70089;HTU21D;57460;47.134;19.888;2024-02-26T06:00:15;10.46;81.06
70089;HTU21D;57460;47.134;19.888;2024-02-26T06:02:41;10.45;81.55
70089;HTU21D;57460;47.134;19.888;2024-02-26T06:05:07;10.41;82.02
70089;HTU21D;57460;47.134;19.888;2024-02-26T06:07:34;10.45;81.81
70089;HTU21D;57460;47.134;19.888;2024-02-26T06:10:01;10.51;81.39
70089;HTU21D;57460;47.134;19.888;2024-02-26T06:12:26;10.53;81.32
70089;HTU21D;57460;47.134;19.888;2024-02-26T06:14:54;10.55;81.17
70089;HTU21D;57460;47.134;19.888;2024-02-26T06:17:19;10.57;81.10
70089;HTU21D;57460;47.134;19.888;2024-02-26T06:19:45;10.60;81.19
70089;HTU21D;57460;47.134;19.888;2024-02-26T06:22:11;10.68;80.42
70089;HTU21D;57460;47.134;19.888;2024-02-26T06:24:37;10.69;80.92
70089;HTU21D;57460;47.134;19.888;2024-02-26T06:27:03;10.69;80.98
70089;HTU21D;57460;47.134;19.888;2024-02-26T06:29:28;10.74;80.78
70089;HTU21D;57460;47.134;19.888;2024-02-26T06:31:54;10.80;80.90
70089;HTU21D;57460;47.134;19.888;2024-02-26T06:34:21;10.87;80.45
70089;HTU21D;57460;47.134;19.888;2024-02-26T06:36:46;10.96;80.31
70089;HTU21D;57460;47.134;19.888;2024-02-26T06:39:12;11.00;80.09
70089;HTU21D;57460;47.134;19.888;2024-02-26T06:41:38;11.07;79.94
70089;HTU21D;57460;47.134;19.888;2024-02-26T06:44:05;11.09;79.78
70089;HTU21D;57460;47.134;19.888;2024-02-26T06:46:31;11.12;79.88
70089;HTU21D;57460;47.134;19.888;2024-02-26T06:48:57;11.14;80.12
70089;HTU21D;57460;47.134;19.888;2024-02-26T06:51:22;11.24;79.33
70089;HTU21D;57460;47.134;19.888;2024-02-26T06:53:49;11.28;80.01
70089;HTU21D;57460;47.134;19.888;2024-02-26T06:56:14;11.41;78.24
70089;HTU21D;57460;47.134;19.888;2024-02-26T06:58:40;11.39;79.39
70089;HTU21D;57460;47.134;19.888;2024-02-26T07:01:06;11.43;78.75
70089;HTU21D;57460;47.134;19.888;2024-02-26T07:03:34;11.48;78.50
70089;HTU21D;57460;47.134;19.888;2024-02-26T07:05:59;11.55;78.22
70089;HTU21D;57460;47.134;19.888;2024-02-26T07:08:25;11.62;78.47
70089;HTU21D;57460;47.134;19.888;2024-02-26T07:10:51;11.68;78.68
70089;HTU21D;57460;47.134;19.888;2024-02-26T07:13:17;11.75;78.85
70089;HTU21D;57460;47.134;19.888;2024-02-26T07:15:42;11.87;78.35
70089;HTU21D;57460;47.134;19.888;2024-02-26T07:18:08;11.99;78.61
70089;HTU21D;57460;47.134;19.888;2024-02-26T07:20:35;12.05;78.11
70089;HTU21D;57460;47.134;19.888;2024-02-26T07:23:01;12.01;78.56
70089;HTU21D;57460;47.134;19.888;2024-02-26T07:25:27;12.07;78.63
70089;HTU21D;57460;47.134;19.888;2024-02-26T07:27:52;12.12;78.28
70089;HTU21D;57460;47.134;19.888;2024-02-26T07:30:18;12.18;78.22
70089;HTU21D;57460;47.134;19.888;2024-02-26T07:32:44;12.31;77.58
70089;HTU21D;57460;47.134;19.888;2024-02-26T07:35:10;12.32;77.72
70089;HTU21D;57460;47.134;19.888;2024-02-26T07:37:36;12.40;77.34
70089;HTU21D;57460;47.134;19.888;2024-02-26T07:40:02;12.42;77.44
70089;HTU21D;57460;47.134;19.888;2024-02-26T07:42:28;12.42;77.77
70089;HTU21D;57460;47.134;19.888;2024-02-26T07:44:54;12.50;77.76
70089;HTU21D;57460;47.134;19.888;2024-02-26T07:47:20;12.59;77.42
70089;HTU21D;57460;47.134;19.888;2024-02-26T07:49:46;12.59;77.95
70089;HTU21D;57460;47.134;19.888;2024-02-26T07:52:12;12.69;76.93
70089;HTU21D;57460;47.134;19.888;2024-02-26T07:54:37;12.70;77.05
70089;HTU21D;57460;47.134;19.888;2024-02-26T07:57:03;12.72;77.21
70089;HTU21D;57460;47.134;19.888;2024-02-26T07:59:34;12.78;76.26
70089;HTU21D;57460;47.134;19.888;2024-02-26T08:01:59;12.70;76.48
70089;HTU21D;57460;47.134;19.888;2024-02-26T08:04:28;12.77;76.49
70089;HTU21D;57460;47.134;19.888;2024-02-26T08:06:54;12.73;76.76
70089;HTU21D;57460;47.134;19.888;2024-02-26T08:09:20;12.80;76.69
70089;HTU21D;57460;47.134;19.888;2024-02-26T08:11:45;12.87;76.83
70089;HTU21D;57460;47.134;19.888;2024-02-26T08:14:11;13.05;76.26
70089;HTU21D;57460;47.134;19.888;2024-02-26T08:16:37;13.23;75.93
70089;HTU21D;57460;47.134;19.888;2024-02-26T08:19:02;13.33;75.23
70089;HTU21D;57460;47.134;19.888;2024-02-26T08:21:28;13.33;74.94
70089;HTU21D;57460;47.134;19.888;2024-02-26T08:23:54;13.34;75.52
70089;HTU21D;57460;47.134;19.888;2024-02-26T08:26:20;13.38;75.95
70089;HTU21D;57460;47.134;19.888;2024-02-26T08:28:48;13.55;74.67
70089;HTU21D;57460;47.134;19.888;2024-02-26T08:31:14;13.49;75.41
70089;HTU21D;57460;47.134;19.888;2024-02-26T08:33:40;13.56;74.54
70089;HTU21D;57460;47.134;19.888;2024-02-26T08:36:06;13.58;75.16
70089;HTU21D;57460;47.134;19.888;2024-02-26T08:38:32;13.66;74.80
70089;HTU21D;57460;47.134;19.888;2024-02-26T08:41:01;13.71;74.47
70089;HTU21D;57460;47.134;19.888;2024-02-26T08:43:28;13.77;74.28
70089;HTU21D;57460;47.134;19.888;2024-02-26T08:45:53;13.82;75.12
70089;HTU21D;57460;47.134;19.888;2024-02-26T08:48:19;13.97;74.38
70089;HTU21D;57460;47.134;19.888;2024-02-26T08:50:45;14.04;73.83
70089;HTU21D;57460;47.134;19.888;2024-02-26T08:53:10;14.12;74.46
70089;HTU21D;57460;47.134;19.888;2024-02-26T08:55:36;14.25;73.07
70089;HTU21D;57460;47.134;19.888;2024-02-26T08:58:02;14.26;71.74
70089;HTU21D;57460;47.134;19.888;2024-02-26T09:00:27;14.39;71.72
70089;HTU21D;57460;47.134;19.888;2024-02-26T09:02:53;14.53;72.90
70089;HTU21D;57460;47.134;19.888;2024-02-26T09:05:19;14.89;70.80
70089;HTU21D;57460;47.134;19.888;2024-02-26T09:07:44;15.19;70.35
70089;HTU21D;57460;47.134;19.888;2024-02-26T09:10:12;15.56;68.75
70089;HTU21D;57460;47.134;19.888;2024-02-26T09:12:38;15.80;68.07
70089;HTU21D;57460;47.134;19.888;2024-02-26T09:15:06;15.82;64.71
70089;HTU21D;57460;47.134;19.888;2024-02-26T09:17:33;15.76;67.59
70089;HTU21D;57460;47.134;19.888;2024-02-26T09:19:58;16.10;67.11
70089;HTU21D;57460;47.134;19.888;2024-02-26T09:22:24;16.11;65.55
70089;HTU21D;57460;47.134;19.888;2024-02-26T09:24:50;16.18;67.20
70089;HTU21D;57460;47.134;19.888;2024-02-26T09:27:17;16.20;64.69
70089;HTU21D;57460;47.134;19.888;2024-02-26T09:29:43;16.48;64.67
70089;HTU21D;57460;47.134;19.888;2024-02-26T09:32:09;16.79;65.25
70089;HTU21D;57460;47.134;19.888;2024-02-26T09:34:34;16.92;64.37
70089;HTU21D;57460;47.134;19.888;2024-02-26T09:37:00;17.43;62.34
70089;HTU21D;57460;47.134;19.888;2024-02-26T09:39:26;17.92;61.05
70089;HTU21D;57460;47.134;19.888;2024-02-26T09:41:53;18.02;61.55
70089;HTU21D;57460;47.134;19.888;2024-02-26T09:44:20;17.70;60.06
70089;HTU21D;57460;47.134;19.888;2024-02-26T09:46:48;17.22;62.57
70089;HTU21D;57460;47.134;19.888;2024-02-26T09:49:15;16.75;63.69
70089;HTU21D;57460;47.134;19.888;2024-02-26T09:51:42;16.41;65.17
70089;HTU21D;57460;47.134;19.888;2024-02-26T09:54:09;16.40;64.24
70089;HTU21D;57460;47.134;19.888;2024-02-26T09:56:39;16.29;65.86
70089;HTU21D;57460;47.134;19.888;2024-02-26T09:59:10;16.39;66.98
70089;HTU21D;57460;47.134;19.888;2024-02-26T10:01:42;16.30;63.27
70089;HTU21D;57460;47.134;19.888;2024-02-26T10:04:09;16.36;66.25
70089;HTU21D;57460;47.134;19.888;2024-02-26T10:06:37;16.32;65.37
70089;HTU21D;57460;47.134;19.888;2024-02-26T10:09:03;16.19;65.19
70089;HTU21D;57460;47.134;19.888;2024-02-26T10:11:32;16.14;66.55
70089;HTU21D;57460;47.134;19.888;2024-02-26T10:13:58;16.02;65.91
70089;HTU21D;57460;47.134;19.888;2024-02-26T10:16:25;16.01;65.91
70089;HTU21D;57460;47.134;19.888;2024-02-26T10:18:52;16.12;66.16
70089;HTU21D;57460;47.134;19.888;2024-02-26T10:21:22;16.19;65.80
70089;HTU21D;57460;47.134;19.888;2024-02-26T10:23:49;16.21;66.91
70089;HTU21D;57460;47.134;19.888;2024-02-26T10:26:16;16.33;64.82
70089;HTU21D;57460;47.134;19.888;2024-02-26T10:28:43;16.43;65.91
70089;HTU21D;57460;47.134;19.888;2024-02-26T10:31:10;16.67;66.02
70089;HTU21D;57460;47.134;19.888;2024-02-26T10:33:37;16.77;64.92
70089;HTU21D;57460;47.134;19.888;2024-02-26T10:36:07;17.00;65.01
70089;HTU21D;57460;47.134;19.888;2024-02-26T10:38:34;17.02;64.21
70089;HTU21D;57460;47.134;19.888;2024-02-26T10:41:06;17.28;64.72
70089;HTU21D;57460;47.134;19.888;2024-02-26T10:43:33;17.38;63.76
70089;HTU21D;57460;47.134;19.888;2024-02-26T10:45:59;17.51;63.31
70089;HTU21D;57460;47.134;19.888;2024-02-26T10:48:25;17.54;61.05
70089;HTU21D;57460;47.134;19.888;2024-02-26T10:50:51;17.59;59.54
70089;HTU21D;57460;47.134;19.888;2024-02-26T10:53:20;17.72;60.73
70089;HTU21D;57460;47.134;19.888;2024-02-26T10:55:57;18.05;62.24
70089;HTU21D;57460;47.134;19.888;2024-02-26T10:58:23;18.10;61.12
70089;HTU21D;57460;47.134;19.888;2024-02-26T11:00:52;18.21;58.19
70089;HTU21D;57460;47.134;19.888;2024-02-26T11:03:18;18.34;61.15
70089;HTU21D;57460;47.134;19.888;2024-02-26T11:05:49;18.36;60.21
70089;HTU21D;57460;47.134;19.888;2024-02-26T11:08:19;18.39;58.59
70089;HTU21D;57460;47.134;19.888;2024-02-26T11:10:53;18.43;62.03
70089;HTU21D;57460;47.134;19.888;2024-02-26T11:13:19;18.48;59.59
70089;HTU21D;57460;47.134;19.888;2024-02-26T11:15:47;18.65;60.30
70089;HTU21D;57460;47.134;19.888;2024-02-26T11:18:19;18.70;58.01
70089;HTU21D;57460;47.134;19.888;2024-02-26T11:20:45;18.76;58.71
70089;HTU21D;57460;47.134;19.888;2024-02-26T11:23:12;18.77;59.64
70089;HTU21D;57460;47.134;19.888;2024-02-26T11:25:38;18.99;58.40
70089;HTU21D;57460;47.134;19.888;2024-02-26T11:28:17;19.24;59.11
70089;HTU21D;57460;47.134;19.888;2024-02-26T11:30:47;19.45;58.98
70089;HTU21D;57460;47.134;19.888;2024-02-26T11:33:15;19.76;56.68
70089;HTU21D;57460;47.134;19.888;2024-02-26T11:35:40;19.94;53.49
70089;HTU21D;57460;47.134;19.888;2024-02-26T11:38:07;20.10;57.27
70089;HTU21D;57460;47.134;19.888;2024-02-26T11:40:37;19.83;56.03
70089;HTU21D;57460;47.134;19.888;2024-02-26T11:43:06;19.85;57.59
70089;HTU21D;57460;47.134;19.888;2024-02-26T11:48:14;20.22;56.22
70089;HTU21D;57460;47.134;19.888;2024-02-26T11:50:42;20.26;52.41
70089;HTU21D;57460;47.134;19.888;2024-02-26T11:53:30;19.85;53.34
70089;HTU21D;57460;47.134;19.888;2024-02-26T11:58:47;19.63;56.77
70089;HTU21D;57460;47.134;19.888;2024-02-26T12:01:37;19.70;56.26
70089;HTU21D;57460;47.134;19.888;2024-02-26T12:06:50;19.89;53.62
70089;HTU21D;57460;47.134;19.888;2024-02-26T12:12:06;19.81;54.27
70089;HTU21D;57460;47.134;19.888;2024-02-26T12:14:55;19.82;54.71
70089;HTU21D;57460;47.134;19.888;2024-02-26T12:17:24;19.79;56.62
70089;HTU21D;57460;47.134;19.888;2024-02-26T12:19:50;19.69;56.39
70089;HTU21D;57460;47.134;19.888;2024-02-26T12:22:20;19.74;56.19
70089;HTU21D;57460;47.134;19.888;2024-02-26T12:24:45;19.96;56.28
70089;HTU21D;57460;47.134;19.888;2024-02-26T12:27:12;19.97;56.36
70089;HTU21D;57460;47.134;19.888;2024-02-26T12:29:38;19.98;52.77
70089;HTU21D;57460;47.134;19.888;2024-02-26T12:32:04;19.97;54.84
70089;HTU21D;57460;47.134;19.888;2024-02-26T12:34:31;19.75;55.56
70089;HTU21D;57460;47.134;19.888;2024-02-26T12:36:57;19.61;55.82
70089;HTU21D;57460;47.134;19.888;2024-02-26T12:39:24;19.60;54.10
70089;HTU21D;57460;47.134;19.888;2024-02-26T12:41:50;19.52;55.56
70089;HTU21D;57460;47.134;19.888;2024-02-26T12:44:16;19.39;56.10
70089;HTU21D;57460;47.134;19.888;2024-02-26T12:46:42;19.23;56.69
70089;HTU21D;57460;47.134;19.888;2024-02-26T12:49:08;19.28;56.57
70089;HTU21D;57460;47.134;19.888;2024-02-26T12:51:34;19.38;56.71
70089;HTU21D;57460;47.134;19.888;2024-02-26T12:54:01;19.37;57.56
70089;HTU21D;57460;47.134;19.888;2024-02-26T12:56:27;19.47;57.16
70089;HTU21D;57460;47.134;19.888;2024-02-26T12:58:54;19.35;53.47
70089;HTU21D;57460;47.134;19.888;2024-02-26T13:01:23;19.28;55.13
70089;HTU21D;57460;47.134;19.888;2024-02-26T13:03:52;19.31;55.77
70089;HTU21D;57460;47.134;19.888;2024-02-26T13:06:19;19.26;54.10
70089;HTU21D;57460;47.134;19.888;2024-02-26T13:08:48;19.35;54.12
70089;HTU21D;57460;47.134;19.888;2024-02-26T13:11:15;19.62;54.96
70089;HTU21D;57460;47.134;19.888;2024-02-26T13:13:41;19.38;52.20
70089;HTU21D;57460;47.134;19.888;2024-02-26T13:16:10;19.35;53.49
70089;HTU21D;57460;47.134;19.888;2024-02-26T13:18:39;19.37;55.05
70089;HTU21D;57460;47.134;19.888;2024-02-26T13:21:14;19.54;55.64
70089;HTU21D;57460;47.134;19.888;2024-02-26T13:23:41;19.65;55.99
70089;HTU21D;57460;47.134;19.888;2024-02-26T13:26:09;19.70;54.84
70089;HTU21D;57460;47.134;19.888;2024-02-26T13:28:37;19.73;54.49
70089;HTU21D;57460;47.134;19.888;2024-02-26T13:31:03;19.60;55.13
70089;HTU21D;57460;47.134;19.888;2024-02-26T13:33:32;19.47;54.36
70089;HTU21D;57460;47.134;19.888;2024-02-26T13:35:59;19.41;55.03
70089;HTU21D;57460;47.134;19.888;2024-02-26T13:38:26;19.42;54.78
70089;HTU21D;57460;47.134;19.888;2024-02-26T13:40:52;19.47;51.91
70089;HTU21D;57460;47.134;19.888;2024-02-26T13:43:19;19.52;53.44
70089;HTU21D;57460;47.134;19.888;2024-02-26T13:45:45;19.55;54.36
70089;HTU21D;57460;47.134;19.888;2024-02-26T13:48:12;19.66;55.73
70089;HTU21D;57460;47.134;19.888;2024-02-26T13:50:39;19.66;51.77
70089;HTU21D;57460;47.134;19.888;2024-02-26T13:53:05;19.61;52.65
70089;HTU21D;57460;47.134;19.888;2024-02-26T13:55:32;19.50;53.46
70089;HTU21D;57460;47.134;19.888;2024-02-26T13:57:59;19.43;54.81
70089;HTU21D;57460;47.134;19.888;2024-02-26T14:00:29;19.48;54.51
70089;HTU21D;57460;47.134;19.888;2024-02-26T14:02:58;19.62;54.97
70089;HTU21D;57460;47.134;19.888;2024-02-26T14:05:23;19.74;52.87
70089;HTU21D;57460;47.134;19.888;2024-02-26T14:07:49;19.71;54.58
70089;HTU21D;57460;47.134;19.888;2024-02-26T14:10:15;19.58;53.91
70089;HTU21D;57460;47.134;19.888;2024-02-26T14:12:41;19.55;52.86
70089;HTU21D;57460;47.134;19.888;2024-02-26T14:15:08;19.71;55.37
70089;HTU21D;57460;47.134;19.888;2024-02-26T14:17:35;19.68;52.25
70089;HTU21D;57460;47.134;19.888;2024-02-26T14:20:01;19.77;54.15
70089;HTU21D;57460;47.134;19.888;2024-02-26T14:22:26;19.90;53.39
70089;HTU21D;57460;47.134;19.888;2024-02-26T14:24:52;19.83;52.85
70089;HTU21D;57460;47.134;19.888;2024-02-26T14:27:18;19.87;53.74
70089;HTU21D;57460;47.134;19.888;2024-02-26T14:29:46;19.88;52.38
70089;HTU21D;57460;47.134;19.888;2024-02-26T14:32:13;19.91;52.29
70089;HTU21D;57460;47.134;19.888;2024-02-26T14:34:38;19.82;50.92
70089;HTU21D;57460;47.134;19.888;2024-02-26T14:37:04;19.76;53.54
70089;HTU21D;57460;47.134;19.888;2024-02-26T14:39:31;19.71;53.12
70089;HTU21D;57460;47.134;19.888;2024-02-26T14:41:58;19.53;52.33
70089;HTU21D;57460;47.134;19.888;2024-02-26T14:44:24;19.42;52.26
70089;HTU21D;57460;47.134;19.888;2024-02-26T14:46:50;19.31;52.43
70089;HTU21D;57460;47.134;19.888;2024-02-26T14:49:16;19.22;51.99
70089;HTU21D;57460;47.134;19.888;2024-02-26T14:51:43;19.21;53.04
70089;HTU21D;57460;47.134;19.888;2024-02-26T14:54:11;19.24;54.25
70089;HTU21D;57460;47.134;19.888;2024-02-26T14:56:37;19.11;53.35
70089;HTU21D;57460;47.134;19.888;2024-02-26T14:59:02;19.06;53.88
70089;HTU21D;57460;47.134;19.888;2024-02-26T15:01:28;18.99;52.62
70089;HTU21D;57460;47.134;19.888;2024-02-26T15:03:54;19.00;54.80
70089;HTU21D;57460;47.134;19.888;2024-02-26T15:06:20;18.97;53.20
70089;HTU21D;57460;47.134;19.888;2024-02-26T15:08:46;18.93;53.14
70089;HTU21D;57460;47.134;19.888;2024-02-26T15:11:12;18.92;53.05